Time;durP1;ratioP1;P1;durP2;ratioP2;P2;SDS_P1;SDS_P2;PMS_P1;PMS_P2;Temp;Humidity;BMP_temperature;BMP_pressure;BME280_temperature;BME280_humidity;BME280_pressure;Samples;Min_cycle;Max_cycle;Signal;HPM_P1;HPM_P2
2023/01/02 00:01:06;;;;;;;0.85;0.85;;;;;;;10.89;100.00;100880.44;10372370;28;20034;-64
2023/01/02 00:06:07;;;;;;;0.40;0.40;;;;;;;10.94;100.00;100869.88;10380517;28;20030;-64
2023/01/02 00:11:07;;;;;;;1.17;1.15;;;;;;;10.91;100.00;100856.72;10380342;28;20049;-64
2023/01/02 00:16:08;;;;;;;0.85;0.82;;;;;;;10.95;100.00;100843.59;10363607;28;20053;-64
2023/01/02 00:21:08;;;;;;;3.00;2.80;;;;;;;10.91;100.00;100848.59;10381422;28;20124;-65
2023/01/02 00:26:09;;;;;;;1.20;1.13;;;;;;;10.99;100.00;100844.84;10379268;28;20030;-65
2023/01/02 00:31:10;;;;;;;0.82;0.82;;;;;;;11.01;100.00;100841.94;10379252;28;20030;-64
2023/01/02 00:36:11;;;;;;;0.70;0.70;;;;;;;10.90;100.00;100840.66;10379715;28;20508;-63
2023/01/02 00:41:11;;;;;;;0.80;0.80;;;;;;;10.99;100.00;100842.16;10378612;28;20133;-64
2023/01/02 00:46:12;;;;;;;2.25;2.15;;;;;;;11.00;100.00;100845.69;10379610;28;20092;-64
2023/01/02 00:51:12;;;;;;;1.17;1.15;;;;;;;11.03;100.00;100839.88;10361997;28;20405;-66
2023/01/02 00:56:13;;;;;;;0.50;0.50;;;;;;;10.98;100.00;100842.38;10379963;28;20111;-65
2023/01/02 01:01:13;;;;;;;0.68;0.68;;;;;;;11.03;100.00;100823.59;10379101;28;20046;-64
2023/01/02 01:06:13;;;;;;;0.68;0.68;;;;;;;11.02;100.00;100821.94;10378868;28;20489;-63
2023/01/02 01:11:14;;;;;;;0.50;0.50;;;;;;;11.08;100.00;100800.28;10378832;28;20042;-64
2023/01/02 01:16:16;;;;;;;1.20;1.17;;;;;;;11.13;100.00;100796.97;10361651;28;20056;-64
2023/01/02 01:21:18;;;;;;;0.95;0.95;;;;;;;11.14;100.00;100795.94;10377274;28;20041;-63
2023/01/02 01:26:19;;;;;;;1.00;1.00;;;;;;;11.13;100.00;100803.22;10345646;28;20030;-63
2023/01/02 01:31:19;;;;;;;1.08;1.08;;;;;;;11.11;100.00;100794.47;10378001;28;20037;-64
2023/01/02 01:36:21;;;;;;;0.47;0.47;;;;;;;11.06;100.00;100786.09;10360042;28;20041;-65
2023/01/02 01:41:22;;;;;;;18.63;2.45;;;;;;;11.12;100.00;100806.13;10376396;28;20087;-64
2023/01/02 01:46:43;;;;;;;0.77;0.77;;;;;;;11.12;100.00;100815.09;10377362;28;20029;-64
2023/01/02 01:52:05;;;;;;;2.80;2.35;;;;;;;11.11;100.00;100804.47;10361352;28;20088;-64
2023/01/02 01:57:18;;;;;;;0.60;0.60;;;;;;;11.06;100.00;100815.06;10376506;28;20405;-64
2023/01/02 02:02:18;;;;;;;0.40;0.40;;;;;;;11.07;100.00;100814.88;10360784;28;20426;-65
2023/01/02 02:07:19;;;;;;;0.50;0.50;;;;;;;11.04;100.00;100815.28;10375979;28;20069;-64
2023/01/02 02:12:19;;;;;;;0.50;0.50;;;;;;;10.98;100.00;100829.66;10358854;28;20120;-65
2023/01/02 02:17:36;;;;;;;0.52;0.52;;;;;;;10.97;100.00;100824.41;10375931;28;20053;-65
2023/01/02 02:23:11;;;;;;;2.72;2.55;;;;;;;10.98;100.00;100832.34;10375155;28;20053;-64
2023/01/02 02:28:59;;;;;;;3.65;2.75;;;;;;;11.03;100.00;100824.44;10375891;28;20030;-64
2023/01/02 02:34:03;;;;;;;2.03;1.92;;;;;;;11.06;100.00;100832.16;10351222;28;20367;-64
2023/01/02 02:39:16;;;;;;;3.70;3.38;;;;;;;10.98;100.00;100826.09;10374956;28;20046;-64
2023/01/02 02:44:54;;;;;;;1.10;1.10;;;;;;;10.93;100.00;100808.56;10376012;28;20040;-64
2023/01/02 02:50:10;;;;;;;2.83;2.63;;;;;;;10.88;100.00;100802.94;10360548;28;20029;-65
2023/01/02 02:55:44;;;;;;;1.63;1.63;;;;;;;10.89;100.00;100801.88;10375108;28;20478;-64
2023/01/02 03:00:45;;;;;;;15.70;2.85;;;;;;;10.91;100.00;100799.81;10373005;28;20250;-64
2023/01/02 03:06:05;;;;;;;1.70;1.60;;;;;;;10.91;100.00;100799.81;10372985;28;20073;-65
2023/01/02 03:11:06;;;;;;;20.30;4.78;;;;;;;10.93;100.00;100808.56;10374152;28;20577;-65
2023/01/02 03:16:24;;;;;;;0.50;0.50;;;;;;;10.96;100.00;100798.38;10356911;28;20034;-65
2023/01/02 03:21:34;;;;;;;1.33;1.23;;;;;;;10.96;100.00;100795.66;10374644;28;20037;-64
2023/01/02 03:26:35;;;;;;;0.47;0.47;;;;;;;11.00;100.00;100794.22;10374937;28;20030;-65
2023/01/02 03:31:38;;;;;;;2.25;2.15;;;;;;;10.98;100.00;100807.97;10374809;28;20466;-64
2023/01/02 03:36:39;;;;;;;0.40;0.40;;;;;;;11.03;100.00;100804.63;10375472;28;20032;-66
2023/01/02 03:41:44;;;;;;;0.55;0.55;;;;;;;11.07;100.00;100805.91;10382297;28;20032;-65
2023/01/02 03:47:29;;;;;;;0.82;0.82;;;;;;;11.06;100.00;100812.38;10366382;28;20105;-65
2023/01/02 03:52:29;;;;;;;0.47;0.47;;;;;;;11.10;100.00;100819.91;10378762;28;20041;-64
2023/01/02 03:58:00;;;;;;;0.40;0.40;;;;;;;11.12;100.00;100816.97;10381633;28;20370;-64
2023/01/02 04:03:42;;;;;;;0.70;0.70;;;;;;;11.12;100.00;100822.41;10382097;28;20065;-65
2023/01/02 04:09:09;;;;;;;4.97;1.85;;;;;;;11.09;100.00;100836.34;10371507;28;20074;-65
2023/01/02 04:14:12;;;;;;;;;;;;;;;11.07;100.00;100849.25;10376189;28;20211;-65
2023/01/02 04:19:16;;;;;;;1.10;1.10;;;;;;;10.88;100.00;100867.94;10382018;28;19979;-65
2023/01/02 04:24:19;;;;;;;0.50;0.50;;;;;;;10.50;100.00;100882.91;10364712;28;20034;-65
2023/01/02 04:29:20;;;;;;;2.22;1.25;;;;;;;10.19;100.00;100900.34;10364052;28;20037;-65
2023/01/02 04:34:20;;;;;;;0.30;0.30;;;;;;;9.93;100.00;100915.28;10364219;28;20385;-64
2023/01/02 04:39:20;;;;;;;0.50;0.50;;;;;;;9.79;100.00;100924.28;10381018;28;20064;-64
2023/01/02 04:44:21;;;;;;;1.58;1.58;;;;;;;9.72;100.00;100929.63;10378638;28;20156;-65
2023/01/02 04:49:21;;;;;;;0.30;0.30;;;;;;;9.67;100.00;100945.59;10380197;28;20136;-65
2023/01/02 04:54:22;;;;;;;0.40;0.40;;;;;;;9.61;100.00;100948.22;10379550;28;20073;-64
2023/01/02 04:59:22;;;;;;;0.68;0.68;;;;;;;9.55;100.00;100964.16;10378264;28;20038;-64
2023/01/02 05:04:22;;;;;;;0.60;0.60;;;;;;;9.49;100.00;100981.16;10379031;28;20080;-64
2023/01/02 05:09:23;;;;;;;0.45;0.45;;;;;;;9.43;100.00;100994.56;10380582;28;20046;-64
2023/01/02 05:14:23;;;;;;;0.40;0.40;;;;;;;9.43;100.00;101000.81;10378838;28;20091;-64
2023/01/02 05:19:24;;;;;;;1.10;1.10;;;;;;;9.39;100.00;101009.50;10377485;28;20064;-64
2023/01/02 05:24:25;;;;;;;1.67;1.08;;;;;;;9.37;100.00;101041.28;10377506;28;20033;-65
2023/01/02 05:29:25;;;;;;;0.40;0.40;;;;;;;9.32;100.00;101042.66;10378027;28;20042;-65
2023/01/02 05:34:25;;;;;;;0.50;0.50;;;;;;;9.31;100.00;101051.78;10378634;28;20095;-64
2023/01/02 05:39:26;;;;;;;0.52;0.52;;;;;;;9.29;100.00;101077.34;10378113;28;20038;-64
2023/01/02 05:44:26;;;;;;;1.38;1.20;;;;;;;9.30;100.00;101087.94;10376346;28;20041;-65
2023/01/02 05:49:27;;;;;;;0.40;0.40;;;;;;;9.22;100.00;101109.66;10377334;28;20038;-64
2023/01/02 05:54:27;;;;;;;0.30;0.30;;;;;;;9.20;100.00;101119.81;10376533;28;20045;-65
2023/01/02 05:59:27;;;;;;;0.60;0.60;;;;;;;9.16;100.00;101128.47;10376473;28;20045;-64
2023/01/02 06:04:28;;;;;;;0.40;0.40;;;;;;;9.05;100.00;101132.44;10374992;28;20025;-65
2023/01/02 06:09:28;;;;;;;0.40;0.40;;;;;;;8.98;100.00;101136.88;10376846;28;20121;-64
2023/01/02 06:14:29;;;;;;;0.30;0.30;;;;;;;8.95;100.00;101137.25;10375770;28;20060;-65
2023/01/02 06:19:29;;;;;;;0.80;0.80;;;;;;;8.93;100.00;101145.50;10375492;28;20393;-65
2023/01/02 06:24:29;;;;;;;0.40;0.40;;;;;;;8.87;100.00;101159.78;10375405;28;20034;-64
2023/01/02 06:29:30;;;;;;;0.40;0.40;;;;;;;8.86;100.00;101166.16;10376769;28;20038;-65
2023/01/02 06:34:30;;;;;;;0.60;0.60;;;;;;;8.83;100.00;101180.03;10375619;28;20065;-64
2023/01/02 06:39:31;;;;;;;0.60;0.60;;;;;;;8.83;100.00;101193.53;10375298;28;20045;-65
2023/01/02 06:44:32;;;;;;;0.40;0.40;;;;;;;8.80;100.00;101204.69;10375531;28;20121;-65
2023/01/02 06:49:32;;;;;;;14.77;4.13;;;;;;;8.80;100.00;101216.31;10375465;28;20417;-65
2023/01/02 06:54:32;;;;;;;0.38;0.38;;;;;;;8.78;100.00;101214.84;10375129;28;20096;-65
2023/01/02 06:59:33;;;;;;;0.30;0.30;;;;;;;8.74;100.00;101221.59;10374949;28;20075;-65
2023/01/02 07:04:33;;;;;;;0.38;0.38;;;;;;;8.77;100.00;101245.56;10374273;28;20087;-65
2023/01/02 07:09:34;;;;;;;0.40;0.40;;;;;;;8.73;100.00;101252.34;10373867;28;20042;-65
2023/01/02 07:14:34;;;;;;;0.32;0.32;;;;;;;8.73;100.00;101269.38;10374092;28;20030;-65
2023/01/02 07:19:34;;;;;;;0.45;0.45;;;;;;;8.65;100.00;101271.25;10375070;28;20481;-66
2023/01/02 07:24:35;;;;;;;1.60;1.50;;;;;;;8.59;100.00;101289.00;10373937;28;20088;-65
2023/01/02 07:29:35;;;;;;;0.40;0.40;;;;;;;8.58;100.00;101300.81;10372036;28;20041;-65
2023/01/02 07:34:35;;;;;;;0.30;0.30;;;;;;;8.60;100.00;101312.28;10373335;28;20038;-65
2023/01/02 07:39:36;;;;;;;0.60;0.60;;;;;;;8.58;100.00;101320.56;10374317;28;20069;-65
2023/01/02 07:44:36;;;;;;;0.70;0.70;;;;;;;8.51;100.00;101335.75;10373738;28;20042;-65
2023/01/02 07:49:37;;;;;;;0.50;0.50;;;;;;;8.43;100.00;101351.16;10372663;28;20041;-65
2023/01/02 07:54:37;;;;;;;0.22;0.22;;;;;;;8.40;100.00;101370.38;10374130;28;20041;-65
2023/01/02 07:59:37;;;;;;;0.40;0.40;;;;;;;8.37;100.00;101380.47;10372688;28;20046;-65
2023/01/02 08:04:38;;;;;;;0.50;0.50;;;;;;;8.34;100.00;101391.59;10373315;28;20030;-64
2023/01/02 08:09:38;;;;;;;1.27;1.27;;;;;;;8.32;100.00;101388.22;10373902;28;20061;-65
2023/01/02 08:14:38;;;;;;;0.43;0.43;;;;;;;8.31;100.00;101388.41;10371519;28;20030;-65
2023/01/02 08:19:39;;;;;;;0.30;0.30;;;;;;;8.28;100.00;101403.06;10374081;28;20088;-65
2023/01/02 08:24:39;;;;;;;0.32;0.32;;;;;;;8.27;100.00;101414.06;10375299;28;20064;-65
2023/01/02 08:29:40;;;;;;;0.20;0.20;;;;;;;8.23;100.00;101426.19;10381906;28;20136;-65
2023/01/02 08:34:40;;;;;;;0.50;0.50;;;;;;;8.22;100.00;101438.81;10383939;28;20045;-64
2023/01/02 08:39:41;;;;;;;0.60;0.60;;;;;;;8.23;100.00;101451.31;10385133;28;20456;-65
2023/01/02 08:44:42;;;;;;;0.40;0.40;;;;;;;8.23;100.00;101456.72;10386536;28;20077;-65
2023/01/02 08:49:42;;;;;;;0.60;0.60;;;;;;;8.30;100.00;101457.72;10388478;28;20030;-64
2023/01/02 08:54:43;;;;;;;0.50;0.50;;;;;;;8.40;100.00;101470.25;10387365;28;20052;-65
2023/01/02 08:59:43;;;;;;;0.50;0.50;;;;;;;8.41;100.00;101470.06;10385153;28;20034;-65
2023/01/02 09:04:43;;;;;;;0.30;0.30;;;;;;;8.43;100.00;101478.84;10385019;28;20470;-64
2023/01/02 09:09:44;;;;;;;0.40;0.40;;;;;;;8.38;100.00;101492.81;10389543;28;20041;-65
2023/01/02 09:14:44;;;;;;;0.93;0.93;;;;;;;8.32;100.00;101498.03;10385302;28;20038;-64
2023/01/02 09:19:45;;;;;;;0.40;0.40;;;;;;;8.34;100.00;101499.53;10387776;28;20049;-64
2023/01/02 09:24:45;;;;;;;0.40;0.40;;;;;;;8.30;100.00;101506.31;10382225;28;20114;-65
2023/01/02 09:29:46;;;;;;;0.60;0.60;;;;;;;8.29;100.00;101503.75;10382592;28;20034;-65
2023/01/02 09:34:49;;;;;;;0.63;0.63;;;;;;;8.28;100.00;101488.59;10390099;28;20030;-64
2023/01/02 09:39:49;;;;;;;0.40;0.40;;;;;;;8.36;100.00;101504.78;10380630;28;20067;-65
2023/01/02 09:44:54;;;;;;;0.32;0.32;;;;;;;8.52;100.00;101509.34;10377827;28;20030;-63
2023/01/02 09:50:03;;;;;;;0.40;0.40;;;;;;;8.47;100.00;101509.88;10375763;28;20355;-63
2023/01/02 09:55:12;;;;;;;0.40;0.40;;;;;;;8.66;100.00;101538.38;10376731;28;20121;-63
2023/01/02 10:00:17;;;;;;;0.30;0.30;;;;;;;8.92;100.00;101542.75;10360425;28;20033;-64
2023/01/02 10:05:44;;;;;;;0.75;0.75;;;;;;;9.09;100.00;101563.31;10377146;28;20030;-65
2023/01/02 10:10:47;;;;;;;0.40;0.40;;;;;;;9.06;100.00;101560.94;10377862;28;20370;-64
2023/01/02 10:15:49;;;;;;;0.30;0.30;;;;;;;9.03;100.00;101562.16;10359640;28;20034;-64
2023/01/02 10:21:00;;;;;;;0.38;0.38;;;;;;;9.21;100.00;101551.13;10374391;28;20053;-64
2023/01/02 10:26:05;;;;;;;0.38;0.38;;;;;;;9.19;100.00;101544.19;10360176;28;20026;-64
2023/01/02 10:31:24;;;;;;;0.40;0.40;;;;;;;9.02;100.00;101570.41;10374471;28;20034;-65
2023/01/02 10:36:27;;;;;;;0.32;0.32;;;;;;;8.89;100.00;101554.72;10359204;28;20045;-65
2023/01/02 10:41:27;;;;;;;0.45;0.45;;;;;;;9.61;100.00;101560.13;10375359;28;20425;-64
2023/01/02 10:46:33;;;;;;;0.60;0.60;;;;;;;10.36;100.00;101570.41;10357067;28;20030;-64
2023/01/02 10:51:34;;;;;;;0.40;0.40;;;;;;;10.53;100.00;101567.56;10374572;28;20037;-64
2023/01/02 10:56:36;;;;;;;13.98;2.78;;;;;;;10.89;100.00;101582.19;10374436;28;20034;-64
2023/01/02 11:01:47;;;;;;;12.93;2.38;;;;;;;10.57;100.00;101577.88;10357389;28;20149;-65
2023/01/02 11:06:50;;;;;;;6.20;2.42;;;;;;;10.43;100.00;101582.22;10343687;28;20080;-65
2023/01/02 11:12:05;;;;;;;7.40;2.10;;;;;;;10.34;100.00;101594.13;10376035;28;20037;-65
2023/01/02 11:17:07;;;;;;;4.40;2.17;;;;;;;10.36;100.00;101608.31;10375336;28;20084;-66
2023/01/02 11:22:09;;;;;;;5.00;2.20;;;;;;;10.71;100.00;101612.28;10372289;28;20038;-65
2023/01/02 11:27:09;;;;;;;7.45;2.78;;;;;;;10.59;100.00;101611.06;10356831;28;20026;-65
2023/01/02 11:32:20;;;;;;;2.33;1.58;;;;;;;10.60;100.00;101603.78;10374721;28;20076;-65
2023/01/02 11:37:20;;;;;;;6.60;2.75;;;;;;;10.53;100.00;101600.06;10374061;28;20351;-64
2023/01/02 11:47:47;;;;;;;4.93;2.33;;;;;;;10.05;100.00;101604.72;10373275;28;20109;-64
2023/01/02 11:53:00;;;;;;;10.45;1.65;;;;;;;9.89;100.00;101598.41;10375385;28;20095;-65
2023/01/02 11:58:29;;;;;;;9.15;2.83;;;;;;;9.81;100.00;101609.25;10357676;28;20125;-65
2023/01/02 12:03:31;;;;;;;11.95;4.63;;;;;;;9.63;100.00;101620.28;10396937;28;20498;-62
2023/01/02 12:08:38;;;;;;;5.22;2.60;;;;;;;9.31;100.00;101634.72;10381147;28;20338;-64
2023/01/02 12:13:59;;;;;;;6.03;2.17;;;;;;;9.14;100.00;101641.16;10380840;28;20022;-65
2023/01/02 12:19:20;;;;;;;4.13;2.38;;;;;;;9.12;100.00;101638.63;10384453;28;20061;-64
2023/01/02 12:24:42;;;;;;;3.17;2.33;;;;;;;9.11;100.00;101641.50;10380327;28;20470;-65
2023/01/02 12:30:10;;;;;;;10.82;2.03;;;;;;;9.05;100.00;101635.75;10382105;28;20034;-65
2023/01/02 12:35:19;;;;;;;15.13;2.05;;;;;;;9.08;100.00;101645.38;10390544;28;20030;-65
2023/01/02 12:40:38;;;;;;;5.40;2.65;;;;;;;9.01;100.00;101658.72;10382103;28;20036;-65
2023/01/02 12:45:56;;;;;;;11.32;4.28;;;;;;;9.07;100.00;101659.91;10380615;28;20030;-65
2023/01/02 12:50:56;;;;;;;3.42;3.13;;;;;;;9.20;100.00;101664.81;10362612;28;20041;-65
2023/01/02 12:56:08;;;;;;;10.67;4.77;;;;;;;9.26;100.00;101664.13;10379495;28;20041;-65
2023/01/02 13:01:27;;;;;;;7.72;3.97;;;;;;;9.22;100.00;101681.69;10379669;28;20268;-65
2023/01/02 13:06:45;;;;;;;15.95;3.67;;;;;;;9.08;100.00;101680.50;10378859;28;20041;-65
2023/01/02 13:11:58;;;;;;;9.00;2.92;;;;;;;9.01;100.00;101685.75;10376921;28;20030;-65
2023/01/02 13:17:28;;;;;;;1.50;1.20;;;;;;;8.97;100.00;101691.66;10362499;28;20057;-65
2023/01/02 13:22:29;;;;;;;12.90;2.60;;;;;;;8.95;100.00;101683.72;10378130;28;20034;-64
2023/01/02 13:27:29;;;;;;;12.35;2.47;;;;;;;8.96;100.00;101695.34;10378877;28;20037;-64
2023/01/02 13:32:29;;;;;;;18.90;2.65;;;;;;;8.86;100.00;101695.50;10378049;28;20446;-65
2023/01/02 13:37:30;;;;;;;7.88;2.75;;;;;;;8.90;100.00;101710.38;10377846;28;20038;-65
2023/01/02 13:47:56;;;;;;;10.68;2.83;;;;;;;8.81;100.00;101714.94;10362772;28;20045;-65
2023/01/02 13:53:08;;;;;;;6.63;2.80;;;;;;;8.81;100.00;101730.28;10359705;28;20461;-65
2023/01/02 13:58:12;;;;;;;15.32;3.17;;;;;;;8.70;100.00;101741.41;10378012;28;20041;-64
2023/01/02 14:03:26;;;;;;;11.95;2.55;;;;;;;8.65;100.00;101743.72;10376604;28;20079;-64
2023/01/02 14:08:41;;;;;;;7.50;2.70;;;;;;;8.58;100.00;101747.13;10377132;28;20117;-65
2023/01/02 14:13:41;;;;;;;7.22;1.83;;;;;;;8.51;100.00;101754.16;10359885;28;20485;-64
2023/01/02 14:18:41;;;;;;;10.38;3.30;;;;;;;8.51;100.00;101762.25;10376386;28;20073;-64
2023/01/02 14:23:42;;;;;;;3.90;2.58;;;;;;;8.52;100.00;101772.06;10373938;28;20053;-65
2023/01/02 14:28:43;;;;;;;9.48;2.58;;;;;;;8.56;100.00;101777.97;10374640;28;20111;-65
2023/01/02 14:33:44;;;;;;;7.00;3.00;;;;;;;8.56;100.00;101795.00;10379478;28;20056;-66
2023/01/02 14:38:52;;;;;;;5.32;2.60;;;;;;;8.60;100.00;101795.53;10358464;28;20034;-65
2023/01/02 14:43:53;;;;;;;15.48;4.68;;;;;;;8.60;100.00;101809.88;10358380;28;20049;-65
2023/01/02 14:48:57;;;;;;;5.43;3.72;;;;;;;8.59;100.00;101815.44;10374428;28;20426;-65
2023/01/02 14:54:00;;;;;;;6.28;2.00;;;;;;;8.59;100.00;101823.56;10373668;28;20084;-64
2023/01/02 14:59:00;;;;;;;16.17;3.85;;;;;;;8.58;100.00;101836.22;10385681;28;20041;-66
2023/01/02 15:04:04;;;;;;;6.45;3.47;;;;;;;8.55;100.00;101847.31;10374207;28;20037;-64
2023/01/02 15:09:06;;;;;;;20.20;12.55;;;;;;;8.50;100.00;101852.34;10374538;28;20044;-66
2023/01/02 15:14:17;;;;;;;14.40;5.10;;;;;;;8.51;100.00;101864.84;10372754;28;20053;-65
2023/01/02 15:19:22;;;;;;;5.60;4.20;;;;;;;8.48;100.00;101878.66;10356938;28;20505;-65
2023/01/02 15:24:24;;;;;;;3.35;2.70;;;;;;;8.43;100.00;101894.50;10373506;28;20050;-65
2023/01/02 15:29:26;;;;;;;6.45;2.92;;;;;;;8.31;100.00;101907.34;10374711;28;20123;-65
2023/01/02 15:34:28;;;;;;;9.00;3.47;;;;;;;8.29;100.00;101913.91;10379463;28;20482;-65
2023/01/02 15:39:34;;;;;;;3.70;2.35;;;;;;;8.20;100.00;101926.53;10381105;28;20370;-65
2023/01/02 15:49:55;;;;;;;10.23;3.38;;;;;;;8.05;100.00;101939.72;10366828;28;20029;-65
2023/01/02 15:54:55;;;;;;;7.85;3.33;;;;;;;7.99;100.00;101948.41;10380956;28;20473;-66
2023/01/02 15:59:55;;;;;;;12.25;3.25;;;;;;;7.84;100.00;101955.34;10365685;28;20116;-66
2023/01/02 16:05:15;;;;;;;7.63;3.30;;;;;;;7.59;100.00;101962.34;10380571;28;20484;-65
2023/01/02 16:10:23;;;;;;;4.32;3.75;;;;;;;7.44;100.00;101968.25;10380678;28;20385;-65
2023/01/02 16:15:27;;;;;;;10.38;3.47;;;;;;;7.29;100.00;101969.75;10380757;28;20030;-65
2023/01/02 16:20:27;;;;;;;12.30;4.30;;;;;;;7.22;100.00;101984.81;10379235;28;20045;-64
2023/01/02 16:25:29;;;;;;;19.15;4.85;;;;;;;7.10;100.00;101997.63;10379533;28;20125;-65
2023/01/02 16:30:37;;;;;;;6.95;4.85;;;;;;;7.00;100.00;102002.22;10379373;28;20397;-65
2023/01/02 16:35:38;;;;;;;11.40;4.18;;;;;;;6.92;100.00;102010.16;10381356;28;20041;-64
2023/01/02 16:40:43;;;;;;;11.15;4.32;;;;;;;6.83;100.00;102030.75;10378254;28;20073;-65
2023/01/02 16:45:45;;;;;;;21.10;4.32;;;;;;;6.72;100.00;102031.75;10379214;28;20033;-64
2023/01/02 16:50:47;;;;;;;5.10;3.75;;;;;;;6.66;100.00;102032.31;10384361;28;20038;-66
2023/01/02 16:55:48;;;;;;;14.98;5.70;;;;;;;6.60;100.00;102040.13;10378980;28;20033;-65
2023/01/02 17:00:48;;;;;;;14.23;4.43;;;;;;;6.53;100.00;102047.91;10379244;28;20033;-64
2023/01/02 17:05:54;;;;;;;8.52;6.00;;;;;;;6.45;100.00;102056.72;10362715;28;20053;-64
2023/01/02 17:10:56;;;;;;;13.27;7.85;;;;;;;6.45;100.00;102070.16;10378900;28;20124;-65
2023/01/02 17:15:57;;;;;;;8.27;6.70;;;;;;;6.37;100.00;102058.41;10379742;28;20374;-65
2023/01/02 17:20:57;;;;;;;18.77;7.53;;;;;;;6.31;100.00;102075.13;10377407;28;20057;-66
2023/01/02 17:25:57;;;;;;;9.82;5.43;;;;;;;6.25;100.00;102080.09;10378502;28;20454;-64
2023/01/02 17:30:58;;;;;;;17.65;7.25;;;;;;;6.20;100.00;102087.72;10378118;28;20041;-64
2023/01/02 17:35:58;;;;;;;7.38;6.50;;;;;;;6.11;100.00;102093.91;10377420;28;20061;-65
2023/01/02 17:40:59;;;;;;;8.52;6.20;;;;;;;6.00;100.00;102102.13;10377048;28;20072;-64
2023/01/02 17:46:06;;;;;;;7.88;6.75;;;;;;;5.98;100.00;102121.06;10376457;28;20030;-65
2023/01/02 17:51:07;;;;;;;15.07;7.38;;;;;;;5.91;100.00;102137.88;10377414;28;20077;-64
2023/01/02 17:56:07;;;;;;;8.00;5.93;;;;;;;5.83;100.00;102146.59;10377079;28;20065;-65
2023/01/02 18:01:18;;;;;;;10.50;6.55;;;;;;;5.80;100.00;102153.09;10378035;28;20473;-65
2023/01/02 18:06:18;;;;;;;12.82;8.02;;;;;;;5.74;100.00;102164.41;10360059;28;20029;-65
2023/01/02 18:11:19;;;;;;;14.57;7.57;;;;;;;5.70;100.00;102160.25;10376214;28;20034;-64
2023/01/02 18:16:28;;;;;;;14.48;8.23;;;;;;;5.68;100.00;102159.56;10375253;28;20093;-65
2023/01/02 18:21:29;;;;;;;15.52;8.45;;;;;;;5.66;100.00;102183.03;10375371;28;20038;-65
2023/01/02 18:26:30;;;;;;;11.90;8.15;;;;;;;5.64;100.00;102197.56;10376614;28;20033;-64
2023/01/02 18:31:32;;;;;;;17.38;7.90;;;;;;;5.57;100.00;102206.16;10374180;28;20034;-64
2023/01/02 18:36:33;;;;;;;25.20;8.20;;;;;;;5.54;100.00;102205.59;10376557;28;20033;-64
2023/01/02 18:41:33;;;;;;;11.13;7.70;;;;;;;5.51;100.00;102203.16;10374597;28;20033;-64
2023/01/02 18:46:35;;;;;;;9.82;8.82;;;;;;;5.52;100.00;102208.41;10357782;28;20458;-64
2023/01/02 18:51:35;;;;;;;14.40;9.45;;;;;;;5.50;100.00;102215.75;10375402;28;20446;-64
2023/01/02 18:56:36;;;;;;;15.82;10.05;;;;;;;5.42;100.00;102223.59;10374609;28;20038;-64
2023/01/02 19:01:39;;;;;;;20.90;8.80;;;;;;;5.41;100.00;102239.88;10375873;28;20037;-64
2023/01/02 19:06:46;;;;;;;11.95;9.18;;;;;;;5.41;100.00;102234.50;10374684;28;20057;-64
2023/01/02 19:17:20;;;;;;;9.82;6.38;;;;;;;5.33;100.00;102236.00;10373633;28;20069;-65
2023/01/02 19:22:22;;;;;;;11.23;7.57;;;;;;;5.27;100.00;102241.03;10358656;28;20045;-65
2023/01/02 19:27:29;;;;;;;8.77;6.85;;;;;;;5.18;100.00;102253.41;10374568;28;20499;-64
2023/01/02 19:32:31;;;;;;;7.60;5.90;;;;;;;5.08;100.00;102257.84;10374645;28;20030;-65
2023/01/02 19:37:39;;;;;;;13.90;7.95;;;;;;;5.01;100.00;102272.75;10378684;28;20030;-63
2023/01/02 19:42:39;;;;;;;13.52;8.93;;;;;;;4.93;100.00;102277.91;10367193;28;20026;-64
2023/01/02 19:47:40;;;;;;;13.02;8.13;;;;;;;4.86;100.00;102286.47;10381103;28;20470;-64
2023/01/02 19:52:40;;;;;;;10.75;8.82;;;;;;;4.83;100.00;102292.09;10360912;28;20030;-64
2023/01/02 19:57:41;;;;;;;11.45;9.77;;;;;;;4.74;100.00;102303.56;10374531;28;20470;-63
2023/01/02 20:02:43;;;;;;;17.00;8.20;;;;;;;4.69;100.00;102308.47;10373992;28;20040;-65
2023/01/02 20:07:44;;;;;;;14.63;9.30;;;;;;;4.68;100.00;102312.13;10374163;28;20117;-63
2023/01/02 20:12:44;;;;;;;13.27;7.43;;;;;;;4.71;100.00;102313.69;10372580;28;20425;-64
2023/01/02 20:17:45;;;;;;;15.88;9.52;;;;;;;4.62;100.00;102310.78;10373737;28;20140;-66
2023/01/02 20:22:45;;;;;;;14.07;10.48;;;;;;;4.65;100.00;102325.78;10381339;28;20351;-67
2023/01/02 20:27:46;;;;;;;10.07;7.35;;;;;;;4.68;100.00;102338.94;10379693;28;20029;-67
2023/01/02 20:32:46;;;;;;;12.60;6.78;;;;;;;4.68;100.00;102336.25;10379257;28;20092;-65
2023/01/02 20:37:47;;;;;;;11.10;8.55;;;;;;;4.68;100.00;102338.94;10380605;28;20065;-64
2023/01/02 20:42:47;;;;;;;9.10;5.60;;;;;;;4.57;100.00;102345.19;10381095;28;20279;-63
2023/01/02 20:47:48;;;;;;;6.80;5.28;;;;;;;4.50;100.00;102345.78;10381243;28;20045;-64
2023/01/02 20:52:48;;;;;;;9.27;6.82;;;;;;;4.38;100.00;102355.69;10378729;28;20136;-63
2023/01/02 20:57:48;;;;;;;8.63;6.57;;;;;;;4.33;100.00;102361.38;10378824;28;20076;-64
2023/01/02 21:02:49;;;;;;;7.90;5.75;;;;;;;4.34;100.00;102368.47;10378918;28;20065;-64
2023/01/02 21:07:49;;;;;;;7.32;5.50;;;;;;;4.37;100.00;102375.41;10378621;28;20030;-64
2023/01/02 21:18:13;;;;;;;13.88;6.00;;;;;;;4.30;100.00;102383.09;10369471;28;20058;-64
2023/01/02 21:23:14;;;;;;;11.00;6.53;;;;;;;4.23;100.00;102384.53;10380722;28;20065;-64
2023/01/02 21:28:15;;;;;;;12.27;6.20;;;;;;;4.13;100.00;102394.28;10377177;28;20057;-63
2023/01/02 21:33:17;;;;;;;14.70;6.22;;;;;;;4.11;100.00;102397.06;10379085;28;20136;-64
2023/01/02 21:38:18;;;;;;;8.57;6.10;;;;;;;4.10;100.00;102394.53;10379027;28;20045;-64
2023/01/02 21:43:19;;;;;;;6.18;5.13;;;;;;;4.10;100.00;102402.56;10377066;28;20494;-63
2023/01/02 21:48:19;;;;;;;11.93;4.70;;;;;;;4.01;100.00;102397.91;10376602;28;20389;-64
2023/01/02 21:53:20;;;;;;;10.15;7.05;;;;;;;3.93;100.00;102418.13;10375887;28;20046;-64
2023/01/02 21:58:20;;;;;;;7.82;5.15;;;;;;;3.82;100.00;102414.53;10377271;28;20033;-63
2023/01/02 22:03:20;;;;;;;5.82;5.22;;;;;;;3.65;100.00;102429.19;10378067;28;20100;-63
2023/01/02 22:08:21;;;;;;;14.45;5.53;;;;;;;3.61;100.00;102441.97;10378645;28;20362;-64
2023/01/02 22:13:21;;;;;;;5.88;4.65;;;;;;;3.55;100.00;102445.09;10377726;28;20042;-64
2023/01/02 22:18:22;;;;;;;11.13;4.30;;;;;;;3.54;100.00;102451.41;10376666;28;20085;-63
2023/01/02 22:23:22;;;;;;;5.75;4.90;;;;;;;3.51;100.00;102467.75;10359083;28;20389;-64
2023/01/02 22:28:23;;;;;;;7.95;5.40;;;;;;;3.50;100.00;102482.94;10376955;28;20045;-64
2023/01/02 22:33:23;;;;;;;5.40;4.50;;;;;;;3.74;100.00;102484.78;10358131;28;20053;-64
2023/01/02 22:38:23;;;;;;;10.00;5.70;;;;;;;3.94;100.00;102484.13;10375348;28;20370;-64
2023/01/02 22:43:24;;;;;;;4.90;4.20;;;;;;;3.95;100.00;102493.03;10376224;28;20053;-63
2023/01/02 22:48:27;;;;;;;7.03;4.30;;;;;;;3.80;100.00;102483.44;10390276;28;20099;-64
2023/01/02 22:53:30;;;;;;;7.90;4.25;;;;;;;3.62;100.00;102486.53;10342300;28;20022;-63
2023/01/02 22:58:31;;;;;;;8.10;5.38;;;;;;;3.34;100.00;102493.06;10358064;28;20379;-65
2023/01/02 23:03:36;;;;;;;9.90;5.03;;;;;;;3.22;100.00;102504.63;10374649;28;20033;-62
2023/01/02 23:08:37;;;;;;;10.27;4.97;;;;;;;3.07;100.00;102513.78;10374439;28;20479;-65
2023/01/02 23:13:37;;;;;;;6.93;5.13;;;;;;;3.01;100.00;102523.09;10375673;28;20120;-64
2023/01/02 23:23:57;;;;;;;6.50;4.35;;;;;;;3.18;100.00;102533.44;10375565;28;20042;-65
2023/01/02 23:28:57;;;;;;;10.25;6.03;;;;;;;3.30;100.00;102534.41;10376653;28;20046;-64
2023/01/02 23:33:57;;;;;;;6.55;4.57;;;;;;;3.28;100.00;102536.31;10380121;28;20045;-63
2023/01/02 23:38:58;;;;;;;10.98;5.60;;;;;;;3.16;100.00;102539.88;10375265;28;20034;-64
2023/01/02 23:43:58;;;;;;;5.22;4.50;;;;;;;3.08;100.00;102534.22;10373237;28;20026;-63